createdAt,value
2019-04-22T00:00:01.371Z,35.62
2019-04-22T00:01:02.607Z,35.39
2019-04-22T00:02:05.606Z,35.22
2019-04-22T00:03:05.003Z,35.63
2019-04-22T00:04:06.591Z,35.41
2019-04-22T00:05:11.365Z,35.4
2019-04-22T00:06:23.814Z,35.35
2019-04-22T00:07:21.972Z,35.43
2019-04-22T00:08:24.056Z,35.46
2019-04-22T00:09:23.705Z,35.46
2019-04-22T00:10:25.878Z,35.32
2019-04-22T00:11:28.649Z,35.58
2019-04-22T00:12:26.980Z,35.58
2019-04-22T00:13:31.787Z,35.33
2019-04-22T00:14:22.913Z,35.46
2019-04-22T00:15:19.318Z,35.51
2019-04-22T00:16:30.588Z,35.44
2019-04-22T00:17:29.890Z,35.75
2019-04-22T00:18:29.925Z,35.79
2019-04-22T00:19:28.798Z,35.6
2019-04-22T00:20:22.228Z,35.54
2019-04-22T00:22:27.206Z,35.81
2019-04-22T00:23:23.064Z,35.82
2019-04-22T00:24:23.801Z,35.75
2019-04-22T00:25:26.072Z,35.69
2019-04-22T00:26:28.742Z,35.75
2019-04-22T00:27:33.450Z,35.86
2019-04-22T00:28:30.164Z,35.75
2019-04-22T00:29:42.208Z,35.83
2019-04-22T00:30:25.298Z,36.18
2019-04-22T00:31:26.544Z,36.32
2019-04-22T00:32:23.940Z,35.97
2019-04-22T00:33:26.206Z,36.11
2019-04-22T00:34:22.388Z,36.41
2019-04-22T00:35:23.469Z,36.22
2019-04-22T00:36:21.527Z,36.28
2019-04-22T00:37:28.159Z,36.18
2019-04-22T00:38:29.941Z,36.47
2019-04-22T00:39:26.792Z,36.28
2019-04-22T00:40:28.062Z,36.7
2019-04-22T00:41:28.401Z,36.27
2019-04-22T00:42:27.295Z,36.48
2019-04-22T00:43:24.062Z,36.52
2019-04-22T00:44:31.126Z,36.48
2019-04-22T00:45:26.578Z,36.97
2019-04-22T00:46:24.935Z,36.63
2019-04-22T00:47:27.735Z,36.63
2019-04-22T00:48:26.949Z,36.71
2019-04-22T00:50:29.786Z,36.8
2019-04-22T00:51:27.727Z,36.65
2019-04-22T00:52:27.925Z,36.58
2019-04-22T00:54:27.820Z,37.02
2019-04-22T00:55:24.400Z,36.81
2019-04-22T00:56:21.791Z,36.74
2019-04-22T00:57:27.639Z,36.69
2019-04-22T00:58:23.889Z,36.81
2019-04-22T00:59:22.980Z,36.56
2019-04-22T01:00:24.508Z,36.75
2019-04-22T01:01:23.283Z,36.71
2019-04-22T01:02:26.015Z,36.65
2019-04-22T01:03:25.757Z,36.94
2019-04-22T01:05:27.119Z,36.91
2019-04-22T01:06:25.348Z,36.98
2019-04-22T01:07:23.516Z,36.77
2019-04-22T01:08:30.058Z,36.46
2019-04-22T01:09:23.160Z,36.74
2019-04-22T01:10:25.006Z,36.61
2019-04-22T01:11:28.946Z,36.9
2019-04-22T01:12:25.938Z,36.99
2019-04-22T01:13:24.567Z,36.67
2019-04-22T01:14:27.873Z,36.7
2019-04-22T01:15:28.437Z,36.72
2019-04-22T01:17:25.436Z,37.07
2019-04-22T01:18:22.192Z,37.03
2019-04-22T01:19:29.387Z,37.11
2019-04-22T01:21:28.629Z,37.1
2019-04-22T01:22:20.315Z,36.93
2019-04-22T01:23:23.364Z,37.13
2019-04-22T01:24:21.628Z,37.13
2019-04-22T01:25:18.777Z,37.24
2019-04-22T01:26:15.274Z,37.46
2019-04-22T01:27:15.841Z,37.7
2019-04-22T01:28:14.007Z,37.72
2019-04-22T01:29:10.841Z,37.55
2019-04-22T01:30:14.382Z,37.57
2019-04-22T01:31:08.191Z,37.51
2019-04-22T01:32:02.197Z,37.58
2019-04-22T01:33:09.010Z,37.78
2019-04-22T01:34:15.925Z,38.07
2019-04-22T01:35:12.710Z,37.98
2019-04-22T01:36:19.295Z,38.26
2019-04-22T01:37:19.645Z,37.96
2019-04-22T01:38:18.778Z,38.21
2019-04-22T01:39:19.861Z,37.9
2019-04-22T01:41:32.001Z,38.12
2019-04-22T01:42:24.238Z,38.43
2019-04-22T01:43:31.358Z,38.22
2019-04-22T01:44:32.601Z,38.15
2019-04-22T01:45:24.581Z,37.78
2019-04-22T01:46:31.017Z,37.62
2019-04-22T01:47:30.960Z,37.89
2019-04-22T01:48:25.900Z,38.2
2019-04-22T01:49:27.146Z,38.2
2019-04-22T01:50:25.654Z,37.96
2019-04-22T01:51:28.100Z,38
2019-04-22T01:52:19.845Z,38.17
2019-04-22T01:53:26.916Z,38.19
2019-04-22T01:56:27.059Z,38.31
2019-04-22T01:57:22.110Z,38.43
2019-04-22T01:58:23.177Z,38.53
2019-04-22T01:59:19.571Z,38.51
2019-04-22T02:00:15.055Z,38.83
2019-04-22T02:01:30.123Z,38.53
2019-04-22T02:02:29.920Z,38.66
2019-04-22T02:03:17.039Z,38.18
2019-04-22T02:04:31.476Z,38.21
2019-04-22T02:05:22.644Z,38.5
2019-04-22T02:06:29.946Z,38.36
2019-04-22T02:07:28.988Z,38.47
2019-04-22T02:09:30.953Z,38.28
2019-04-22T02:10:34.423Z,38.11
2019-04-22T02:11:31.958Z,38.24
2019-04-22T02:12:25.518Z,38.27
2019-04-22T02:13:28.617Z,37.97
2019-04-22T02:14:26.733Z,38.25
2019-04-22T02:15:23.150Z,38.24
2019-04-22T02:16:27.174Z,38.03
2019-04-22T02:17:31.368Z,38.14
2019-04-22T02:18:31.419Z,38.01
2019-04-22T02:19:30.164Z,37.93
2019-04-22T02:20:24.809Z,38.51
2019-04-22T02:21:19.989Z,38.28
2019-04-22T02:22:41.463Z,38.23
2019-04-22T02:23:43.772Z,38.24
2019-04-22T02:24:33.118Z,38.54
2019-04-22T02:25:32.110Z,38.66
2019-04-22T02:26:31.105Z,38.21
2019-04-22T02:27:31.932Z,38.25
2019-04-22T02:29:28.611Z,38.57
2019-04-22T02:30:33.070Z,38.26
2019-04-22T02:34:32.283Z,38.45
2019-04-22T02:35:47.910Z,38.81
2019-04-22T02:37:27.540Z,38.88
2019-04-22T02:38:51.072Z,38.44
2019-04-22T02:40:44.073Z,38.91
2019-04-22T02:41:40.669Z,38.92
2019-04-22T02:42:23.208Z,39.06
2019-04-22T02:43:43.326Z,39.03
2019-04-22T02:44:27.770Z,39.13
2019-04-22T02:45:36.756Z,38.95
2019-04-22T02:46:42.751Z,39.24
2019-04-22T02:47:41.731Z,38.95
2019-04-22T02:49:28.856Z,38.81
2019-04-22T02:50:27.858Z,38.96
2019-04-22T02:52:30.438Z,39.41
2019-04-22T02:54:00.327Z,39.35
2019-04-22T02:54:38.101Z,39.2
2019-04-22T02:55:31.733Z,39.62
2019-04-22T02:57:34.719Z,39.76
2019-04-22T02:58:46.537Z,39.9
2019-04-22T02:59:30.680Z,39.85
2019-04-22T03:02:40.696Z,39.78
2019-04-22T03:04:22.089Z,39.74
2019-04-22T03:05:36.239Z,40.39
2019-04-22T03:06:38.169Z,40.31
2019-04-22T03:07:31.531Z,40.14
2019-04-22T03:08:39.208Z,40.43
2019-04-22T03:09:27.891Z,40.41
2019-04-22T03:11:32.727Z,40.58
2019-04-22T03:12:40.675Z,40.94
2019-04-22T03:13:37.436Z,41.09
2019-04-22T03:14:29.493Z,41.15
2019-04-22T03:15:29.590Z,41.46
2019-04-22T03:17:43.135Z,41.52
2019-04-22T03:18:37.770Z,41.53
2019-04-22T03:20:49.862Z,41.23
2019-04-22T03:21:30.943Z,41.37
2019-04-22T03:22:27.797Z,41.26
2019-04-22T03:24:40.260Z,41.43
2019-04-22T03:26:31.648Z,41.57
2019-04-22T03:27:29.295Z,41.91
2019-04-22T03:28:36.877Z,41.59
2019-04-22T03:29:43.843Z,41.46
2019-04-22T03:31:57.338Z,41.73
2019-04-22T03:35:18.755Z,41.79
2019-04-22T03:38:40.834Z,41.73
2019-04-22T03:39:50.279Z,41.92
2019-04-22T03:41:47.369Z,41.43
2019-04-22T03:42:43.402Z,42.29
2019-04-22T03:43:41.935Z,42.06
2019-04-22T03:45:27.550Z,42.15
2019-04-22T03:46:41.591Z,41.56
2019-04-22T03:47:33.347Z,41.89
2019-04-22T03:48:35.698Z,41.75
2019-04-22T03:50:35.922Z,41.85
2019-04-22T03:51:45.447Z,42.11
2019-04-22T03:52:44.333Z,42.36
2019-04-22T03:53:47.892Z,41.82
2019-04-22T03:55:38.185Z,41.93
2019-04-22T03:57:06.727Z,42.08
2019-04-22T03:57:45.556Z,41.72
2019-04-22T03:58:27.820Z,42.02
2019-04-22T03:59:41.016Z,41.89
2019-04-22T04:03:28.043Z,42.03
2019-04-22T04:04:32.448Z,42.42
2019-04-22T04:06:39.462Z,42.11
2019-04-22T04:08:38.492Z,42.29
2019-04-22T04:09:31.950Z,41.87
2019-04-22T04:11:42.561Z,41.73
2019-04-22T04:12:37.156Z,42.51
2019-04-22T04:13:33.017Z,42.46
2019-04-22T04:14:35.292Z,42.13
2019-04-22T04:16:38.568Z,42.72
2019-04-22T04:17:43.514Z,42.22
2019-04-22T04:18:39.061Z,42.3
2019-04-22T04:19:43.023Z,42.77
2019-04-22T04:21:32.682Z,42.48
2019-04-22T04:23:45.614Z,42.51
2019-04-22T04:24:43.792Z,42.59
2019-04-22T04:26:45.040Z,42.25
2019-04-22T04:27:53.169Z,42.68
2019-04-22T04:29:44.992Z,42.48
2019-04-22T04:31:32.130Z,42.39
2019-04-22T04:33:46.350Z,42.69
2019-04-22T04:34:53.271Z,42.78
2019-04-22T04:35:40.305Z,42.66
2019-04-22T04:36:33.884Z,42.82
2019-04-22T04:37:44.386Z,42.72
2019-04-22T04:38:36.101Z,42.68
2019-04-22T04:39:33.967Z,42.73
2019-04-22T04:43:34.841Z,42.75
2019-04-22T04:44:47.593Z,42.5
2019-04-22T04:48:41.781Z,43.23
2019-04-22T04:49:34.039Z,42.78
2019-04-22T04:50:37.658Z,43.08
2019-04-22T04:51:37.304Z,43
2019-04-22T04:53:24.263Z,43.17
2019-04-22T04:58:46.031Z,43.28
2019-04-22T05:01:35.010Z,42.96
2019-04-22T05:03:38.973Z,42.9
2019-04-22T05:05:31.235Z,43.39
2019-04-22T05:07:35.828Z,43.38
2019-04-22T05:08:51.115Z,43.31
2019-04-22T05:09:23.653Z,43.43
2019-04-22T05:10:40.942Z,43.28
2019-04-22T05:12:44.828Z,43.89
2019-04-22T05:13:38.964Z,43.62
2019-04-22T05:17:34.691Z,43.17
2019-04-22T05:18:37.065Z,43.2
2019-04-22T05:19:30.535Z,43.48
2019-04-22T05:21:21.337Z,43.41
2019-04-22T05:23:29.837Z,43.37
2019-04-22T05:24:27.953Z,43.22
2019-04-22T05:25:22.060Z,43.95
2019-04-22T05:28:23.520Z,43.47
2019-04-22T05:30:26.322Z,43.49
2019-04-22T05:31:31.963Z,43.56
2019-04-22T05:32:30.538Z,43.18
2019-04-22T05:33:27.309Z,43.56
2019-04-22T05:34:39.657Z,43.52
2019-04-22T05:35:26.061Z,43.49
2019-04-22T05:36:27.909Z,43.82
2019-04-22T05:37:26.882Z,43.83
2019-04-22T05:38:32.880Z,44.41
2019-04-22T05:39:20.872Z,43.9
2019-04-22T05:41:28.550Z,43.89
2019-04-22T05:42:22.637Z,44.16
2019-04-22T05:43:27.067Z,44.06
2019-04-22T05:44:29.265Z,44.1
2019-04-22T05:45:24.605Z,43.73
2019-04-22T05:46:22.064Z,44.48
2019-04-22T05:47:25.248Z,44.04
2019-04-22T05:48:24.029Z,43.79
2019-04-22T05:49:23.325Z,44.33
2019-04-22T05:50:22.707Z,44.35
2019-04-22T05:51:30.932Z,44.37
2019-04-22T05:52:24.671Z,44.42
2019-04-22T05:53:25.242Z,44.66
2019-04-22T05:54:27.187Z,44.39
2019-04-22T05:55:41.357Z,44.4
2019-04-22T05:56:32.359Z,43.95
2019-04-22T05:57:23.180Z,43.78
2019-04-22T05:58:29.142Z,44.13
2019-04-22T05:59:24.208Z,44.25
2019-04-22T06:00:30.534Z,44.39
2019-04-22T06:02:30.234Z,43.63
2019-04-22T06:03:28.166Z,43.65
2019-04-22T06:04:21.366Z,44
2019-04-22T06:05:24.319Z,44.27
2019-04-22T06:06:22.294Z,44.46
2019-04-22T06:07:26.057Z,43.66
2019-04-22T06:08:23.107Z,43.31
2019-04-22T06:09:38.616Z,44.25
2019-04-22T06:10:25.909Z,43.63
2019-04-22T06:12:20.699Z,43.53
2019-04-22T06:13:17.542Z,43.19
2019-04-22T06:14:19.905Z,43.08
2019-04-22T06:15:23.210Z,43.18
2019-04-22T06:16:25.536Z,43.38
2019-04-22T06:17:23.779Z,43.16
2019-04-22T06:18:26.900Z,43.35
2019-04-22T06:19:24.300Z,43.28
2019-04-22T06:20:21.614Z,43.15
2019-04-22T06:21:26.286Z,43.12
2019-04-22T06:22:29.942Z,42.93
2019-04-22T06:25:36.507Z,43.29
2019-04-22T06:27:40.256Z,42.72
2019-04-22T06:28:34.643Z,42.96
2019-04-22T06:29:24.901Z,43.14
2019-04-22T06:30:41.237Z,43.25
2019-04-22T06:31:32.010Z,43.31
2019-04-22T06:33:25.896Z,43.27
2019-04-22T06:34:28.555Z,42.95
2019-04-22T06:35:29.426Z,43.21
2019-04-22T06:36:28.864Z,43.04
2019-04-22T06:37:22.028Z,42.96
2019-04-22T06:39:27.662Z,43.02
2019-04-22T06:40:25.690Z,42.76
2019-04-22T06:41:40.068Z,42.7
2019-04-22T06:42:28.120Z,42.85
2019-04-22T06:43:27.619Z,42.94
2019-04-22T06:45:23.272Z,42.94
2019-04-22T06:46:26.973Z,42.7
2019-04-22T06:47:39.447Z,42.63
2019-04-22T06:48:23.453Z,42.88
2019-04-22T06:49:29.887Z,42.25
2019-04-22T06:50:30.080Z,42.42
2019-04-22T06:51:26.791Z,42.37
2019-04-22T06:52:20.503Z,42.69
2019-04-22T06:53:23.554Z,42.9
2019-04-22T06:54:27.433Z,42.88
2019-04-22T06:55:26.978Z,42.11
2019-04-22T06:56:21.531Z,42.15
2019-04-22T06:57:25.065Z,41.96
2019-04-22T06:58:19.475Z,41.83
2019-04-22T06:59:24.579Z,42.01
2019-04-22T07:00:24.269Z,42.05
2019-04-22T07:02:31.817Z,41.84
2019-04-22T07:04:21.114Z,41.98
2019-04-22T07:05:27.302Z,41.59
2019-04-22T07:06:34.661Z,41.64
2019-04-22T07:07:23.368Z,41.1
2019-04-22T07:09:40.951Z,41.21
2019-04-22T07:10:34.755Z,41.3
2019-04-22T07:11:23.483Z,41.58
2019-04-22T07:12:48.397Z,41.45
2019-04-22T07:13:27.015Z,41.31
2019-04-22T07:14:21.891Z,41.39
2019-04-22T07:15:41.861Z,41.35
2019-04-22T07:17:27.382Z,41.28
2019-04-22T07:18:29.553Z,40.81
2019-04-22T07:19:27.455Z,40.84
2019-04-22T07:21:25.553Z,41.16
2019-04-22T07:22:27.580Z,40.86
2019-04-22T07:23:26.912Z,40.61
2019-04-22T07:24:40.207Z,40.47
2019-04-22T07:25:22.904Z,40.61
2019-04-22T07:26:36.044Z,40.49
2019-04-22T07:27:40.286Z,40.19
2019-04-22T07:28:19.838Z,40.17
2019-04-22T07:29:24.744Z,40.39
2019-04-22T07:30:26.055Z,40.44
2019-04-22T07:32:33.174Z,40.36
2019-04-22T07:34:26.313Z,39.77
2019-04-22T07:35:28.358Z,39.76
2019-04-22T07:37:31.218Z,40.02
2019-04-22T07:39:39.068Z,39.73
2019-04-22T07:40:26.476Z,39.26
2019-04-22T07:41:26.893Z,39.66
2019-04-22T07:42:24.298Z,39.56
2019-04-22T07:45:42.124Z,40.25
2019-04-22T07:46:25.764Z,40.29
2019-04-22T07:48:37.391Z,39.4
2019-04-22T07:49:32.112Z,39.43
2019-04-22T07:50:35.504Z,39.76
2019-04-22T07:51:26.366Z,39.78
2019-04-22T07:52:27.176Z,39.91
2019-04-22T07:53:21.471Z,39.65
2019-04-22T07:54:25.673Z,39.71
2019-04-22T07:55:16.190Z,39.57
2019-04-22T07:56:22.768Z,39.46
2019-04-22T07:57:27.286Z,39.48
2019-04-22T07:58:28.524Z,39.49
2019-04-22T07:59:27.848Z,39.15
2019-04-22T08:00:28.902Z,39.25
2019-04-22T08:01:26.251Z,39.02
2019-04-22T08:02:23.486Z,39.06
2019-04-22T08:03:26.533Z,38.87
2019-04-22T08:04:34.269Z,38.94
2019-04-22T08:05:32.653Z,39.36
2019-04-22T08:06:23.066Z,39.04
2019-04-22T08:07:48.725Z,38.75
2019-04-22T08:08:25.680Z,38.44
2019-04-22T08:09:26.486Z,38.63
2019-04-22T08:10:29.392Z,38.44
2019-04-22T08:12:26.123Z,38.66
2019-04-22T08:13:24.618Z,38.52
2019-04-22T08:14:28.004Z,38.17
2019-04-22T08:15:26.501Z,38.22
2019-04-22T08:16:22.719Z,38.44
2019-04-22T08:17:51.709Z,38.33
2019-04-22T08:18:27.391Z,37.72
2019-04-22T08:19:26.403Z,37.78
2019-04-22T08:20:28.364Z,38.13
2019-04-22T08:21:21.803Z,38.01
2019-04-22T08:22:20.602Z,37.6
2019-04-22T08:24:35.409Z,37.76
2019-04-22T08:25:24.383Z,37.39
2019-04-22T08:26:27.211Z,37.36
2019-04-22T08:27:22.209Z,37.29
2019-04-22T08:28:30.144Z,37.07
2019-04-22T08:29:36.663Z,37.19
2019-04-22T08:30:27.542Z,37.42
2019-04-22T08:31:28.091Z,37.81
2019-04-22T08:32:27.807Z,37.08
2019-04-22T08:33:28.689Z,36.97
2019-04-22T08:34:24.436Z,36.96
2019-04-22T08:35:39.224Z,36.28
2019-04-22T08:36:25.458Z,36.54
2019-04-22T08:39:24.854Z,36.13
2019-04-22T08:39:24.854Z,36.62
2019-04-22T08:40:27.401Z,35.98
2019-04-22T08:41:31.568Z,36.04
2019-04-22T08:42:34.500Z,35.89
2019-04-22T08:43:26.561Z,36.3
2019-04-22T08:44:38.645Z,36.06
2019-04-22T08:45:31.635Z,36.06
2019-04-22T08:48:22.559Z,35.8
2019-04-22T08:49:21.531Z,35.8
2019-04-22T08:50:26.502Z,35.79
2019-04-22T08:51:24.593Z,35.71
2019-04-22T08:52:27.096Z,35.17
2019-04-22T08:53:23.285Z,35.4
2019-04-22T08:54:23.683Z,35.42
2019-04-22T08:56:04.445Z,35.41
2019-04-22T08:56:31.974Z,35.08
2019-04-22T08:57:34.408Z,35
2019-04-22T08:58:27.225Z,34.77
2019-04-22T08:59:21.558Z,34.87
2019-04-22T09:00:29.044Z,35.65
2019-04-22T09:02:32.351Z,35.12
2019-04-22T09:03:23.707Z,34.74
2019-04-22T09:04:15.951Z,34.45
2019-04-22T09:05:41.528Z,34.34
2019-04-22T09:06:48.999Z,34.81
2019-04-22T09:07:31.178Z,34.65
2019-04-22T09:08:26.130Z,34.71
2019-04-22T09:09:26.309Z,34.41
2019-04-22T09:10:23.780Z,34.42
2019-04-22T09:11:26.385Z,34.18
2019-04-22T09:12:34.251Z,33.67
2019-04-22T09:13:29.647Z,33.8
2019-04-22T09:14:31.078Z,32.95
2019-04-22T09:15:25.978Z,32.98
2019-04-22T09:16:31.432Z,32.88
2019-04-22T09:17:39.400Z,32.81
2019-04-22T09:18:28.054Z,33.36
2019-04-22T09:19:22.286Z,32.5
2019-04-22T09:20:25.738Z,32.57
2019-04-22T09:21:32.480Z,32.91
2019-04-22T09:22:21.026Z,32.32
2019-04-22T09:23:29.997Z,32.14
2019-04-22T09:24:22.920Z,31.59
2019-04-22T09:25:23.879Z,32.43
2019-04-22T09:26:28.573Z,32.92
2019-04-22T09:29:26.615Z,32.89
2019-04-22T09:30:27.279Z,32.68
2019-04-22T09:31:23.291Z,32.18
2019-04-22T09:32:26.126Z,31.96
2019-04-22T09:33:20.243Z,32.24
2019-04-22T09:34:27.539Z,31.66
2019-04-22T09:35:15.431Z,31.43
2019-04-22T09:36:28.701Z,31.86
2019-04-22T09:37:33.017Z,32.11
2019-04-22T09:39:29.257Z,32.38
2019-04-22T09:40:21.539Z,32.29
2019-04-22T09:41:26.948Z,31.95
2019-04-22T09:42:23.585Z,31.34
2019-04-22T09:43:31.424Z,31.5
2019-04-22T09:44:30.702Z,31.85
2019-04-22T09:45:21.021Z,31.39
2019-04-22T09:46:28.129Z,31.42
2019-04-22T09:47:24.748Z,32.05
2019-04-22T09:48:29.479Z,31.44
2019-04-22T09:49:26.079Z,31.6
2019-04-22T09:50:28.980Z,31.52
2019-04-22T09:51:24.789Z,31.12
2019-04-22T09:52:19.938Z,31.17
2019-04-22T09:53:28.408Z,31.39
2019-04-22T09:54:29.144Z,31.82
2019-04-22T09:55:21.091Z,31.49
2019-04-22T09:57:24.289Z,31.54
2019-04-22T09:58:23.103Z,31.55
2019-04-22T09:59:26.992Z,31.68
2019-04-22T10:00:19.457Z,30.85
2019-04-22T10:01:27.457Z,31.15
2019-04-22T10:03:25.657Z,30.71
2019-04-22T10:04:24.711Z,30.82
2019-04-22T10:05:27.288Z,30.41
2019-04-22T10:07:25.537Z,30.5
2019-04-22T10:08:31.450Z,30.75
2019-04-22T10:09:40.067Z,30.87
2019-04-22T10:10:18.488Z,31.1
2019-04-22T10:13:25.309Z,30.13
2019-04-22T10:14:24.653Z,29.96
2019-04-22T10:15:24.687Z,30.61
2019-04-22T10:16:30.714Z,30.88
2019-04-22T10:17:24.905Z,29.75
2019-04-22T10:18:25.671Z,29.95
2019-04-22T10:19:22.737Z,30.17
2019-04-22T10:20:26.762Z,30.11
2019-04-22T10:21:35.133Z,30.46
2019-04-22T10:23:24.200Z,30.77
2019-04-22T10:24:18.306Z,30.81
2019-04-22T10:25:22.831Z,30.41
2019-04-22T10:26:27.731Z,30.25
2019-04-22T10:27:25.761Z,30.22
2019-04-22T10:28:32.062Z,30.5
2019-04-22T10:29:24.214Z,29.99
2019-04-22T10:30:33.012Z,29.84
2019-04-22T10:31:30.739Z,30.21
2019-04-22T10:32:23.963Z,30.46
2019-04-22T10:33:21.628Z,30.3
2019-04-22T10:34:13.754Z,29.91
2019-04-22T10:35:04.908Z,30.44
2019-04-22T10:36:01.393Z,29.48
2019-04-22T10:37:04.677Z,29.67
2019-04-22T10:38:00.651Z,30.27
2019-04-22T10:39:00.266Z,29.91
2019-04-22T10:40:03.882Z,29.61
2019-04-22T10:41:00.801Z,30.12
2019-04-22T10:42:00.007Z,30.02
2019-04-22T10:43:01.109Z,30.05
2019-04-22T10:44:01.267Z,30.41
2019-04-22T10:45:01.040Z,30.61
2019-04-22T10:45:59.987Z,30.49
2019-04-22T10:47:00.075Z,30.56
2019-04-22T10:48:01.330Z,30.48
2019-04-22T10:49:00.182Z,30.41
2019-04-22T10:50:00.617Z,30.42
2019-04-22T10:51:00.996Z,30.48
2019-04-22T10:52:00.853Z,30.41
2019-04-22T10:52:59.928Z,30.02
2019-04-22T10:53:59.950Z,30.24
2019-04-22T10:55:01.162Z,29.88
2019-04-22T10:56:00.933Z,30
2019-04-22T10:57:01.006Z,29.75
2019-04-22T10:58:00.046Z,29.86
2019-04-22T10:59:00.490Z,29.64
2019-04-22T11:00:00.861Z,29.76
2019-04-22T11:01:00.206Z,30.17
2019-04-22T11:02:01.226Z,30.41
2019-04-22T11:03:00.176Z,30.83
2019-04-22T11:04:01.365Z,30.8
2019-04-22T11:04:59.982Z,30.92
2019-04-22T11:06:01.238Z,31.1
2019-04-22T11:07:03.699Z,30.74
2019-04-22T11:08:04.655Z,30.59
2019-04-22T11:09:04.539Z,31.05
2019-04-22T11:10:17.839Z,30.97
2019-04-22T11:11:10.330Z,31.49
2019-04-22T11:12:06.327Z,30.98
2019-04-22T11:13:00.922Z,31.32
2019-04-22T11:14:00.162Z,31.44
2019-04-22T11:15:00.133Z,31.15
2019-04-22T11:16:00.533Z,31.17
2019-04-22T11:17:02.074Z,31
2019-04-22T11:17:59.906Z,31.21
2019-04-22T11:19:01.303Z,30.61
2019-04-22T11:19:59.898Z,30.46
2019-04-22T11:20:59.943Z,30.21
2019-04-22T11:22:07.413Z,30.5
2019-04-22T11:23:00.593Z,30.09
2019-04-22T11:24:00.701Z,30.23
2019-04-22T11:25:01.208Z,30.07
2019-04-22T11:25:59.979Z,29.99
2019-04-22T11:27:01.099Z,29.77
2019-04-22T11:28:00.101Z,30.19
2019-04-22T11:29:01.367Z,30.13
2019-04-22T11:30:01.709Z,30.39
2019-04-22T11:31:00.743Z,30.78
2019-04-22T11:32:00.152Z,30.89
2019-04-22T11:33:00.419Z,30.71
2019-04-22T11:34:00.748Z,30.76
2019-04-22T11:35:01.488Z,30.51
2019-04-22T11:36:00.042Z,30.47
2019-04-22T11:37:00.995Z,30.09
2019-04-22T11:38:01.090Z,30.02
2019-04-22T11:39:02.310Z,29.6
2019-04-22T11:40:06.648Z,29.85
2019-04-22T11:41:01.466Z,29.39
2019-04-22T11:42:00.373Z,29.78
2019-04-22T11:43:00.017Z,30.2
2019-04-22T11:44:01.276Z,30.7
2019-04-22T11:45:01.056Z,30.62
2019-04-22T11:45:59.886Z,29.81
2019-04-22T11:47:01.400Z,29.98
2019-04-22T11:48:01.393Z,29.29
2019-04-22T11:49:00.255Z,29.03
2019-04-22T11:49:59.881Z,29.48
2019-04-22T11:51:00.111Z,29.8
2019-04-22T11:52:00.971Z,29.05
2019-04-22T11:53:00.730Z,28.73
2019-04-22T11:54:01.045Z,29.38
2019-04-22T11:55:01.040Z,28.61
2019-04-22T11:56:00.558Z,28.41
2019-04-22T11:57:01.065Z,28.44
2019-04-22T11:58:01.033Z,28.25
2019-04-22T11:59:00.627Z,28.56
2019-04-22T12:00:00.972Z,28.65
2019-04-22T12:01:01.068Z,28.35
2019-04-22T12:02:00.557Z,28.47
2019-04-22T12:03:00.819Z,28.23
2019-04-22T12:03:59.996Z,28.13
2019-04-22T12:04:59.865Z,28.09
2019-04-22T12:05:59.894Z,27.95
2019-04-22T12:07:00.203Z,28.28
2019-04-22T12:07:59.868Z,27.72
2019-04-22T12:09:01.620Z,27.41
2019-04-22T12:10:07.467Z,27.44
2019-04-22T12:11:02.608Z,27.69
2019-04-22T12:12:00.051Z,27.95
2019-04-22T12:12:59.984Z,27.91
2019-04-22T12:14:00.201Z,27.47
2019-04-22T12:15:00.727Z,27.44
2019-04-22T12:16:00.909Z,27.5
2019-04-22T12:17:01.471Z,27.52
2019-04-22T12:18:01.143Z,26.93
2019-04-22T12:19:00.845Z,26.79
2019-04-22T12:20:00.204Z,27
2019-04-22T12:21:01.226Z,26.5
2019-04-22T12:22:00.678Z,26.87
2019-04-22T12:23:01.103Z,26.8
2019-04-22T12:24:01.082Z,26.51
2019-04-22T12:25:00.557Z,26.51
2019-04-22T12:26:05.584Z,26.5
2019-04-22T12:27:00.215Z,26.69
2019-04-22T12:28:01.086Z,26.25
2019-04-22T12:28:59.861Z,26.18
2019-04-22T12:30:00.827Z,25.95
2019-04-22T12:30:59.842Z,25.85
2019-04-22T12:31:59.864Z,25.96
2019-04-22T12:33:00.152Z,25.65
2019-04-22T12:34:01.274Z,24.9
2019-04-22T12:34:59.921Z,25.46
2019-04-22T12:36:00.250Z,25.29
2019-04-22T12:37:00.453Z,25.16
2019-04-22T12:38:04.749Z,25.17
2019-04-22T12:39:00.041Z,24.97
2019-04-22T12:40:00.356Z,24.89
2019-04-22T12:41:04.241Z,24.28
2019-04-22T12:42:00.307Z,24.8
2019-04-22T12:43:04.120Z,24.73
2019-04-22T12:44:00.967Z,24.79
2019-04-22T12:45:00.424Z,24.84
2019-04-22T12:46:00.381Z,24.9
2019-04-22T12:47:01.713Z,24.78
2019-04-22T12:48:00.116Z,24.63
2019-04-22T12:49:00.308Z,24.96
2019-04-22T12:50:08.691Z,25.13
2019-04-22T12:51:00.817Z,25.18
2019-04-22T12:52:00.980Z,25.24
2019-04-22T12:53:05.167Z,25.07
2019-04-22T12:54:01.017Z,25.29
2019-04-22T12:54:59.853Z,25.33
2019-04-22T12:56:01.137Z,25.21
2019-04-22T12:57:01.696Z,24.91
2019-04-22T12:58:01.235Z,25.03
2019-04-22T12:59:01.070Z,25.51
2019-04-22T12:59:59.865Z,25.17
2019-04-22T13:01:01.027Z,25
2019-04-22T13:02:00.671Z,25.01
2019-04-22T13:03:01.038Z,24.97
2019-04-22T13:04:05.650Z,24.43
2019-04-22T13:05:00.701Z,24.43
2019-04-22T13:05:59.843Z,24.39
2019-04-22T13:06:59.811Z,24.19
2019-04-22T13:08:00.131Z,24.52
2019-04-22T13:09:00.278Z,24.18
2019-04-22T13:10:01.244Z,24.37
2019-04-22T13:11:06.443Z,25.01
2019-04-22T13:12:01.160Z,24.67
2019-04-22T13:13:00.841Z,24.65
2019-04-22T13:14:00.924Z,24.69
2019-04-22T13:15:01.076Z,24.39
2019-04-22T13:15:59.822Z,24.33
2019-04-22T13:16:59.839Z,24.44
2019-04-22T13:17:31.268Z,"  24.29"
2019-04-22T13:18:39.493Z,"  24.71"
2019-04-22T13:19:30.280Z,"  24.88"
2019-04-22T13:20:30.475Z,"  24.96"
2019-04-22T13:21:31.121Z,"  24.98"
2019-04-22T13:22:30.605Z,"  24.69"
2019-04-22T13:23:29.962Z,"  24.77"
2019-04-22T13:24:30.171Z,"  24.98"
2019-04-22T13:25:32.260Z,"  24.92"
2019-04-22T13:26:31.963Z,"  25.37"
2019-04-22T13:27:30.898Z,"  24.94"
2019-04-22T13:28:31.368Z,"  25.25"
2019-04-22T13:29:31.113Z,"  24.69"
2019-04-22T13:30:30.531Z,"  24.84"
2019-04-22T13:31:30.940Z,"  24.61"
2019-04-22T13:32:31.346Z,"  24.37"
2019-04-22T13:33:30.613Z,"  24.38"
2019-04-22T13:34:37.559Z,"  24.59"
2019-04-22T13:35:29.964Z,"  24.59"
2019-04-22T13:36:31.549Z,"  24.47"
2019-04-22T13:37:30.814Z,"  24.11"
2019-04-22T13:38:31.149Z,"  24.15"
2019-04-22T13:39:31.313Z,"  24.33"
2019-04-22T13:40:30.817Z,"  23.88"
2019-04-22T13:41:37.665Z,"  23.96"
2019-04-22T13:42:31.266Z,"  24.06"
2019-04-22T13:43:31.224Z,"  23.68"
2019-04-22T13:44:31.325Z,"  23.46"
2019-04-22T13:45:30.033Z,"  23.13"
2019-04-22T13:46:31.697Z,"  23.40"
2019-04-22T13:47:46.430Z,"  24.03"
2019-04-22T13:48:53.825Z,"  23.14"
2019-04-22T13:50:11.664Z,"  23.29"
2019-04-22T13:51:08.096Z,"  23.83"
2019-04-22T13:54:29.596Z,"  23.22"
2019-04-22T13:56:50.564Z,"  23.46"
2019-04-22T13:57:50.326Z,"  22.95"
2019-04-22T13:58:44.736Z,"  22.91"
2019-04-22T13:59:36.622Z,"  23.30"
2019-04-22T14:00:31.022Z,"  22.95"
2019-04-22T14:01:30.330Z,"  23.47"
2019-04-22T14:02:30.660Z,"  23.31"
2019-04-22T14:03:30.888Z,"  22.84"
2019-04-22T14:04:30.443Z,"  23.69"
2019-04-22T14:05:31.034Z,"  23.02"
2019-04-22T14:06:31.126Z,"  22.35"
2019-04-22T14:07:30.717Z,"  22.47"
2019-04-22T14:08:31.336Z,"  22.38"
2019-04-22T14:09:30.569Z,"  22.05"
2019-04-22T14:10:30.303Z,"  22.45"
2019-04-22T14:11:36.691Z,"  22.63"
2019-04-22T14:12:30.793Z,"  22.76"
2019-04-22T14:13:30.096Z,"  22.46"
2019-04-22T14:14:30.258Z,"  23.01"
2019-04-22T14:15:29.945Z,"  22.40"
2019-04-22T14:16:31.142Z,"  22.34"
2019-04-22T14:17:31.388Z,"  22.40"
2019-04-22T14:18:30.713Z,"  22.30"
2019-04-22T14:19:29.968Z,"  22.54"
2019-04-22T14:20:31.428Z,"  22.51"
2019-04-22T14:21:30.611Z,"  22.43"
2019-04-22T14:22:30.530Z,"  22.17"
2019-04-22T14:23:30.853Z,"  22.24"
2019-04-22T14:24:30.109Z,"  22.86"
2019-04-22T14:25:30.477Z,"  22.33"
2019-04-22T14:26:44.167Z,"  22.13"
2019-04-22T14:27:41.897Z,"  21.93"
2019-04-22T14:28:31.329Z,"  21.86"
2019-04-22T14:29:31.322Z,"  21.94"
2019-04-22T14:30:30.522Z,"  21.36"
2019-04-22T14:31:30.748Z,"  21.83"
2019-04-22T14:32:31.821Z,"  22.08"
2019-04-22T14:33:30.356Z,"  21.18"
2019-04-22T14:34:30.271Z,"  21.74"
2019-04-22T14:35:31.184Z,"  21.78"
2019-04-22T14:36:29.911Z,"  21.62"
2019-04-22T14:37:29.957Z,"  22.06"
2019-04-22T14:38:30.368Z,"  21.55"
2019-04-22T14:39:30.427Z,"  21.58"